sensor_id;sensor_type;location;lat;lon;timestamp;temperature;humidity
14182;DHT22;7171;50.936;6.764;2023-04-25T00:00:54;9.20;99.90
14182;DHT22;7171;50.936;6.764;2023-04-25T00:03:20;9.20;99.90
14182;DHT22;7171;50.936;6.764;2023-04-25T00:05:49;9.20;99.90
14182;DHT22;7171;50.936;6.764;2023-04-25T00:08:17;9.20;99.90
14182;DHT22;7171;50.936;6.764;2023-04-25T00:10:44;9.20;99.90
14182;DHT22;7171;50.936;6.764;2023-04-25T00:13:10;9.20;99.90
14182;DHT22;7171;50.936;6.764;2023-04-25T00:15:37;9.20;99.90
14182;DHT22;7171;50.936;6.764;2023-04-25T00:18:07;9.20;99.90
14182;DHT22;7171;50.936;6.764;2023-04-25T00:20:35;9.20;99.90
14182;DHT22;7171;50.936;6.764;2023-04-25T00:23:03;9.20;99.90
14182;DHT22;7171;50.936;6.764;2023-04-25T00:25:30;9.20;99.90
14182;DHT22;7171;50.936;6.764;2023-04-25T00:27:57;9.20;99.90
14182;DHT22;7171;50.936;6.764;2023-04-25T00:30:23;9.20;99.90
14182;DHT22;7171;50.936;6.764;2023-04-25T00:32:50;9.20;99.90
14182;DHT22;7171;50.936;6.764;2023-04-25T00:35:17;9.20;99.90
14182;DHT22;7171;50.936;6.764;2023-04-25T00:37:44;9.20;99.90
14182;DHT22;7171;50.936;6.764;2023-04-25T00:40:12;9.20;99.90
14182;DHT22;7171;50.936;6.764;2023-04-25T00:42:40;9.20;99.90
14182;DHT22;7171;50.936;6.764;2023-04-25T00:45:09;9.20;99.90
14182;DHT22;7171;50.936;6.764;2023-04-25T00:47:40;9.20;99.90
14182;DHT22;7171;50.936;6.764;2023-04-25T00:50:07;9.20;99.90
14182;DHT22;7171;50.936;6.764;2023-04-25T00:52:35;9.20;99.90
14182;DHT22;7171;50.936;6.764;2023-04-25T00:55:02;9.20;99.90
14182;DHT22;7171;50.936;6.764;2023-04-25T00:57:30;9.20;99.90
14182;DHT22;7171;50.936;6.764;2023-04-25T00:59:58;9.10;99.90
14182;DHT22;7171;50.936;6.764;2023-04-25T01:02:25;9.10;99.90
14182;DHT22;7171;50.936;6.764;2023-04-25T01:04:53;8.50;99.90
14182;DHT22;7171;50.936;6.764;2023-04-25T01:07:20;9.00;99.90
14182;DHT22;7171;50.936;6.764;2023-04-25T01:09:47;9.00;99.90
14182;DHT22;7171;50.936;6.764;2023-04-25T01:12:13;8.90;99.90
14182;DHT22;7171;50.936;6.764;2023-04-25T01:14:42;8.90;99.90
14182;DHT22;7171;50.936;6.764;2023-04-25T01:17:09;8.90;99.90
14182;DHT22;7171;50.936;6.764;2023-04-25T01:19:36;8.90;99.90
14182;DHT22;7171;50.936;6.764;2023-04-25T01:22:05;9.60;99.90
14182;DHT22;7171;50.936;6.764;2023-04-25T01:24:32;8.80;99.90
14182;DHT22;7171;50.936;6.764;2023-04-25T01:27:00;8.80;99.90
14182;DHT22;7171;50.936;6.764;2023-04-25T01:29:28;9.30;99.90
14182;DHT22;7171;50.936;6.764;2023-04-25T01:31:55;8.70;99.90
14182;DHT22;7171;50.936;6.764;2023-04-25T01:34:24;8.60;99.90
14182;DHT22;7171;50.936;6.764;2023-04-25T01:36:51;9.20;99.90
14182;DHT22;7171;50.936;6.764;2023-04-25T01:39:20;9.20;99.90
14182;DHT22;7171;50.936;6.764;2023-04-25T01:41:48;8.70;99.90
14182;DHT22;7171;50.936;6.764;2023-04-25T01:44:15;8.50;99.90
14182;DHT22;7171;50.936;6.764;2023-04-25T01:46:42;8.50;99.90
14182;DHT22;7171;50.936;6.764;2023-04-25T01:49:08;8.50;99.90
14182;DHT22;7171;50.936;6.764;2023-04-25T01:51:35;8.50;99.90
14182;DHT22;7171;50.936;6.764;2023-04-25T01:54:03;8.50;99.90
14182;DHT22;7171;50.936;6.764;2023-04-25T01:56:32;8.50;99.90
14182;DHT22;7171;50.936;6.764;2023-04-25T01:58:59;8.50;99.90
14182;DHT22;7171;50.936;6.764;2023-04-25T02:01:26;8.40;99.90
14182;DHT22;7171;50.936;6.764;2023-04-25T02:03:52;8.40;99.90
14182;DHT22;7171;50.936;6.764;2023-04-25T02:06:19;8.50;99.90
14182;DHT22;7171;50.936;6.764;2023-04-25T02:08:46;8.40;99.90
14182;DHT22;7171;50.936;6.764;2023-04-25T02:11:13;8.50;99.90
14182;DHT22;7171;50.936;6.764;2023-04-25T02:13:41;8.50;99.90
14182;DHT22;7171;50.936;6.764;2023-04-25T02:16:08;8.50;99.90
14182;DHT22;7171;50.936;6.764;2023-04-25T02:18:34;8.50;99.90
14182;DHT22;7171;50.936;6.764;2023-04-25T02:21:03;8.50;99.90
14182;DHT22;7171;50.936;6.764;2023-04-25T02:23:29;8.50;99.90
14182;DHT22;7171;50.936;6.764;2023-04-25T02:25:57;8.50;99.90
14182;DHT22;7171;50.936;6.764;2023-04-25T02:28:24;8.50;99.90
14182;DHT22;7171;50.936;6.764;2023-04-25T02:30:53;8.50;99.90
14182;DHT22;7171;50.936;6.764;2023-04-25T02:33:20;8.50;99.90
14182;DHT22;7171;50.936;6.764;2023-04-25T02:35:47;8.50;99.90
14182;DHT22;7171;50.936;6.764;2023-04-25T02:38:14;8.50;99.90
14182;DHT22;7171;50.936;6.764;2023-04-25T02:40:41;8.50;99.90
14182;DHT22;7171;50.936;6.764;2023-04-25T02:43:07;8.50;99.90
14182;DHT22;7171;50.936;6.764;2023-04-25T02:45:34;8.50;99.90
14182;DHT22;7171;50.936;6.764;2023-04-25T02:48:03;8.40;99.90
14182;DHT22;7171;50.936;6.764;2023-04-25T02:50:30;8.50;99.90
14182;DHT22;7171;50.936;6.764;2023-04-25T02:52:57;8.50;99.90
14182;DHT22;7171;50.936;6.764;2023-04-25T02:55:23;8.50;99.90
14182;DHT22;7171;50.936;6.764;2023-04-25T02:57:50;8.40;99.90
14182;DHT22;7171;50.936;6.764;2023-04-25T03:00:17;8.40;99.90
14182;DHT22;7171;50.936;6.764;2023-04-25T03:02:43;8.30;99.90
14182;DHT22;7171;50.936;6.764;2023-04-25T03:05:11;8.40;99.90
14182;DHT22;7171;50.936;6.764;2023-04-25T03:07:38;8.40;99.90
14182;DHT22;7171;50.936;6.764;2023-04-25T03:10:07;8.30;99.90
14182;DHT22;7171;50.936;6.764;2023-04-25T03:12:34;8.40;99.90
14182;DHT22;7171;50.936;6.764;2023-04-25T03:15:00;8.40;99.90
14182;DHT22;7171;50.936;6.764;2023-04-25T03:17:27;8.40;99.90
14182;DHT22;7171;50.936;6.764;2023-04-25T03:19:54;8.30;99.90
14182;DHT22;7171;50.936;6.764;2023-04-25T03:22:22;9.00;99.90
14182;DHT22;7171;50.936;6.764;2023-04-25T03:24:49;8.40;99.90
14182;DHT22;7171;50.936;6.764;2023-04-25T03:27:16;8.40;99.90
14182;DHT22;7171;50.936;6.764;2023-04-25T03:29:43;8.40;99.90
14182;DHT22;7171;50.936;6.764;2023-04-25T03:32:10;8.40;99.90
14182;DHT22;7171;50.936;6.764;2023-04-25T03:34:36;8.50;99.90
14182;DHT22;7171;50.936;6.764;2023-04-25T03:37:03;8.40;99.90
14182;DHT22;7171;50.936;6.764;2023-04-25T03:39:31;8.50;99.90
14182;DHT22;7171;50.936;6.764;2023-04-25T03:41:58;8.50;99.90
14182;DHT22;7171;50.936;6.764;2023-04-25T03:44:25;8.50;99.90
14182;DHT22;7171;50.936;6.764;2023-04-25T03:46:52;8.50;99.90
14182;DHT22;7171;50.936;6.764;2023-04-25T03:49:18;8.50;99.90
14182;DHT22;7171;50.936;6.764;2023-04-25T03:51:45;8.50;99.90
14182;DHT22;7171;50.936;6.764;2023-04-25T03:54:12;8.50;99.90
14182;DHT22;7171;50.936;6.764;2023-04-25T03:56:40;8.60;99.90
14182;DHT22;7171;50.936;6.764;2023-04-25T03:59:07;8.60;99.90
14182;DHT22;7171;50.936;6.764;2023-04-25T04:01:34;8.60;99.90
14182;DHT22;7171;50.936;6.764;2023-04-25T04:04:01;8.60;99.90
14182;DHT22;7171;50.936;6.764;2023-04-25T04:06:27;8.60;99.90
14182;DHT22;7171;50.936;6.764;2023-04-25T04:08:55;8.60;99.90
14182;DHT22;7171;50.936;6.764;2023-04-25T04:11:22;8.60;99.90
14182;DHT22;7171;50.936;6.764;2023-04-25T04:13:50;8.60;99.90
14182;DHT22;7171;50.936;6.764;2023-04-25T04:16:16;8.60;99.90
14182;DHT22;7171;50.936;6.764;2023-04-25T04:18:45;8.60;99.90
14182;DHT22;7171;50.936;6.764;2023-04-25T04:21:12;8.60;99.90
14182;DHT22;7171;50.936;6.764;2023-04-25T04:23:38;8.60;99.90
14182;DHT22;7171;50.936;6.764;2023-04-25T04:26:05;8.60;99.90
14182;DHT22;7171;50.936;6.764;2023-04-25T04:28:32;8.60;99.90
14182;DHT22;7171;50.936;6.764;2023-04-25T04:31:00;8.60;99.90
14182;DHT22;7171;50.936;6.764;2023-04-25T04:33:28;8.60;99.90
14182;DHT22;7171;50.936;6.764;2023-04-25T04:35:54;8.60;99.90
14182;DHT22;7171;50.936;6.764;2023-04-25T04:38:21;8.50;99.90
14182;DHT22;7171;50.936;6.764;2023-04-25T04:40:49;8.50;99.90
14182;DHT22;7171;50.936;6.764;2023-04-25T04:43:16;8.50;99.90
14182;DHT22;7171;50.936;6.764;2023-04-25T04:45:44;8.50;99.90
14182;DHT22;7171;50.936;6.764;2023-04-25T04:48:12;8.50;99.90
14182;DHT22;7171;50.936;6.764;2023-04-25T04:50:39;8.50;99.90
14182;DHT22;7171;50.936;6.764;2023-04-25T04:53:07;8.50;99.90
14182;DHT22;7171;50.936;6.764;2023-04-25T04:55:34;8.50;99.90
14182;DHT22;7171;50.936;6.764;2023-04-25T04:58:00;8.50;99.90
14182;DHT22;7171;50.936;6.764;2023-04-25T05:00:27;8.50;99.90
14182;DHT22;7171;50.936;6.764;2023-04-25T05:02:54;8.50;99.90
14182;DHT22;7171;50.936;6.764;2023-04-25T05:05:23;8.50;99.90
14182;DHT22;7171;50.936;6.764;2023-04-25T05:07:50;8.50;99.90
14182;DHT22;7171;50.936;6.764;2023-04-25T05:10:17;8.50;99.90
14182;DHT22;7171;50.936;6.764;2023-04-25T05:12:44;8.40;99.90
14182;DHT22;7171;50.936;6.764;2023-04-25T05:15:11;8.40;99.90
14182;DHT22;7171;50.936;6.764;2023-04-25T05:17:38;8.50;99.90
14182;DHT22;7171;50.936;6.764;2023-04-25T05:20:06;8.50;99.90
14182;DHT22;7171;50.936;6.764;2023-04-25T05:22:36;8.50;99.90
14182;DHT22;7171;50.936;6.764;2023-04-25T05:25:03;8.50;99.90
14182;DHT22;7171;50.936;6.764;2023-04-25T05:27:30;8.50;99.90
14182;DHT22;7171;50.936;6.764;2023-04-25T05:29:57;8.50;99.90
14182;DHT22;7171;50.936;6.764;2023-04-25T05:32:23;8.50;99.90
14182;DHT22;7171;50.936;6.764;2023-04-25T05:34:51;8.60;99.90
14182;DHT22;7171;50.936;6.764;2023-04-25T05:37:18;8.50;99.90
14182;DHT22;7171;50.936;6.764;2023-04-25T05:39:46;8.60;99.90
14182;DHT22;7171;50.936;6.764;2023-04-25T05:42:13;8.60;99.90
14182;DHT22;7171;50.936;6.764;2023-04-25T05:44:39;8.60;99.90
14182;DHT22;7171;50.936;6.764;2023-04-25T05:47:06;8.70;99.90
14182;DHT22;7171;50.936;6.764;2023-04-25T05:49:34;8.70;99.90
14182;DHT22;7171;50.936;6.764;2023-04-25T05:52:00;8.70;99.90
14182;DHT22;7171;50.936;6.764;2023-04-25T05:54:27;8.70;99.90
14182;DHT22;7171;50.936;6.764;2023-04-25T05:56:56;8.70;99.90
14182;DHT22;7171;50.936;6.764;2023-04-25T05:59:23;8.70;99.90
14182;DHT22;7171;50.936;6.764;2023-04-25T06:01:50;8.80;99.90
14182;DHT22;7171;50.936;6.764;2023-04-25T06:04:17;8.80;99.90
14182;DHT22;7171;50.936;6.764;2023-04-25T06:06:43;8.80;99.90
14182;DHT22;7171;50.936;6.764;2023-04-25T06:09:10;8.80;99.90
14182;DHT22;7171;50.936;6.764;2023-04-25T06:11:37;8.80;99.90
14182;DHT22;7171;50.936;6.764;2023-04-25T06:14:06;8.80;99.90
14182;DHT22;7171;50.936;6.764;2023-04-25T06:16:32;8.80;99.90
14182;DHT22;7171;50.936;6.764;2023-04-25T06:18:59;8.90;99.90
14182;DHT22;7171;50.936;6.764;2023-04-25T06:21:26;8.80;99.90
14182;DHT22;7171;50.936;6.764;2023-04-25T06:23:52;8.80;99.90
14182;DHT22;7171;50.936;6.764;2023-04-25T06:26:19;8.80;99.90
14182;DHT22;7171;50.936;6.764;2023-04-25T06:28:46;8.80;99.90
14182;DHT22;7171;50.936;6.764;2023-04-25T06:31:14;8.80;99.90
14182;DHT22;7171;50.936;6.764;2023-04-25T06:33:41;8.80;99.90
14182;DHT22;7171;50.936;6.764;2023-04-25T06:36:07;8.80;99.90
14182;DHT22;7171;50.936;6.764;2023-04-25T06:38:34;8.80;99.90
14182;DHT22;7171;50.936;6.764;2023-04-25T06:41:01;8.90;99.90
14182;DHT22;7171;50.936;6.764;2023-04-25T06:43:28;8.80;99.90
14182;DHT22;7171;50.936;6.764;2023-04-25T06:45:58;8.90;99.90
14182;DHT22;7171;50.936;6.764;2023-04-25T06:48:26;8.90;99.90
14182;DHT22;7171;50.936;6.764;2023-04-25T06:50:54;8.90;99.90
14182;DHT22;7171;50.936;6.764;2023-04-25T06:53:21;8.90;99.90
14182;DHT22;7171;50.936;6.764;2023-04-25T06:55:48;9.00;99.90
14182;DHT22;7171;50.936;6.764;2023-04-25T06:58:15;9.00;99.90
14182;DHT22;7171;50.936;6.764;2023-04-25T07:00:42;9.00;99.90
14182;DHT22;7171;50.936;6.764;2023-04-25T07:03:09;9.00;99.90
14182;DHT22;7171;50.936;6.764;2023-04-25T07:05:37;9.10;99.90
14182;DHT22;7171;50.936;6.764;2023-04-25T07:08:04;9.20;99.90
14182;DHT22;7171;50.936;6.764;2023-04-25T07:10:31;9.20;99.90
14182;DHT22;7171;50.936;6.764;2023-04-25T07:12:57;9.20;99.90
14182;DHT22;7171;50.936;6.764;2023-04-25T07:15:24;9.30;99.90
14182;DHT22;7171;50.936;6.764;2023-04-25T07:17:51;9.30;99.90
14182;DHT22;7171;50.936;6.764;2023-04-25T07:20:18;9.30;99.90
14182;DHT22;7171;50.936;6.764;2023-04-25T07:22:46;9.30;99.90
14182;DHT22;7171;50.936;6.764;2023-04-25T07:25:13;9.40;99.90
14182;DHT22;7171;50.936;6.764;2023-04-25T07:27:40;9.30;99.90
14182;DHT22;7171;50.936;6.764;2023-04-25T07:30:07;9.40;99.90
14182;DHT22;7171;50.936;6.764;2023-04-25T07:32:34;9.40;99.90
14182;DHT22;7171;50.936;6.764;2023-04-25T07:35:01;9.40;99.90
14182;DHT22;7171;50.936;6.764;2023-04-25T07:37:28;9.30;99.90
14182;DHT22;7171;50.936;6.764;2023-04-25T07:39:56;9.40;99.90
14182;DHT22;7171;50.936;6.764;2023-04-25T07:42:23;9.30;99.90
14182;DHT22;7171;50.936;6.764;2023-04-25T07:44:50;9.30;99.90
14182;DHT22;7171;50.936;6.764;2023-04-25T07:47:17;9.30;99.90
14182;DHT22;7171;50.936;6.764;2023-04-25T07:49:45;9.30;99.90
14182;DHT22;7171;50.936;6.764;2023-04-25T07:52:12;9.20;99.90
14182;DHT22;7171;50.936;6.764;2023-04-25T07:54:38;9.20;99.90
14182;DHT22;7171;50.936;6.764;2023-04-25T07:57:07;9.20;99.90
14182;DHT22;7171;50.936;6.764;2023-04-25T07:59:34;9.20;99.90
14182;DHT22;7171;50.936;6.764;2023-04-25T08:02:01;9.20;99.90
14182;DHT22;7171;50.936;6.764;2023-04-25T08:04:28;9.10;99.90
14182;DHT22;7171;50.936;6.764;2023-04-25T08:06:54;9.10;99.90
14182;DHT22;7171;50.936;6.764;2023-04-25T08:09:21;9.10;99.90
14182;DHT22;7171;50.936;6.764;2023-04-25T08:11:48;9.20;99.90
14182;DHT22;7171;50.936;6.764;2023-04-25T08:14:16;9.10;99.90
14182;DHT22;7171;50.936;6.764;2023-04-25T08:16:43;9.20;99.90
14182;DHT22;7171;50.936;6.764;2023-04-25T08:19:10;9.20;99.90
14182;DHT22;7171;50.936;6.764;2023-04-25T08:21:37;9.20;99.90
14182;DHT22;7171;50.936;6.764;2023-04-25T08:24:04;9.20;99.90
14182;DHT22;7171;50.936;6.764;2023-04-25T08:26:31;9.20;99.90
14182;DHT22;7171;50.936;6.764;2023-04-25T08:28:58;9.20;99.90
14182;DHT22;7171;50.936;6.764;2023-04-25T08:31:26;9.20;99.90
14182;DHT22;7171;50.936;6.764;2023-04-25T08:33:53;9.20;99.90
14182;DHT22;7171;50.936;6.764;2023-04-25T08:36:20;9.30;99.90
14182;DHT22;7171;50.936;6.764;2023-04-25T08:38:46;9.30;99.90
14182;DHT22;7171;50.936;6.764;2023-04-25T08:41:13;9.30;99.90
14182;DHT22;7171;50.936;6.764;2023-04-25T08:43:42;9.30;99.90
14182;DHT22;7171;50.936;6.764;2023-04-25T08:46:11;9.40;99.90
14182;DHT22;7171;50.936;6.764;2023-04-25T08:48:40;9.40;99.90
14182;DHT22;7171;50.936;6.764;2023-04-25T08:51:10;9.40;99.90
14182;DHT22;7171;50.936;6.764;2023-04-25T08:53:42;9.40;99.90
14182;DHT22;7171;50.936;6.764;2023-04-25T08:56:11;9.50;99.90
14182;DHT22;7171;50.936;6.764;2023-04-25T08:58:39;9.60;99.90
14182;DHT22;7171;50.936;6.764;2023-04-25T09:01:06;9.70;99.90
14182;DHT22;7171;50.936;6.764;2023-04-25T09:03:33;9.70;99.90
14182;DHT22;7171;50.936;6.764;2023-04-25T09:06:02;9.70;99.90
14182;DHT22;7171;50.936;6.764;2023-04-25T09:08:29;9.70;99.90
14182;DHT22;7171;50.936;6.764;2023-04-25T09:10:56;9.70;99.90
14182;DHT22;7171;50.936;6.764;2023-04-25T09:13:28;9.70;99.90
14182;DHT22;7171;50.936;6.764;2023-04-25T09:15:56;9.70;99.90
14182;DHT22;7171;50.936;6.764;2023-04-25T09:18:24;9.70;99.90
14182;DHT22;7171;50.936;6.764;2023-04-25T09:20:54;9.80;99.90
14182;DHT22;7171;50.936;6.764;2023-04-25T09:23:23;9.80;99.90
14182;DHT22;7171;50.936;6.764;2023-04-25T09:25:51;9.80;99.90
14182;DHT22;7171;50.936;6.764;2023-04-25T09:28:23;9.70;99.90
14182;DHT22;7171;50.936;6.764;2023-04-25T09:30:55;9.80;99.90
14182;DHT22;7171;50.936;6.764;2023-04-25T09:33:27;9.80;99.90
14182;DHT22;7171;50.936;6.764;2023-04-25T09:36:01;9.80;99.90
14182;DHT22;7171;50.936;6.764;2023-04-25T09:38:32;9.80;99.90
14182;DHT22;7171;50.936;6.764;2023-04-25T09:40:59;9.80;99.90
14182;DHT22;7171;50.936;6.764;2023-04-25T09:43:27;9.80;99.90
14182;DHT22;7171;50.936;6.764;2023-04-25T09:45:54;9.80;99.90
14182;DHT22;7171;50.936;6.764;2023-04-25T09:48:25;9.80;99.90
14182;DHT22;7171;50.936;6.764;2023-04-25T09:51:04;9.90;99.90
14182;DHT22;7171;50.936;6.764;2023-04-25T09:53:33;9.90;99.90
14182;DHT22;7171;50.936;6.764;2023-04-25T09:56:00;9.90;99.90
14182;DHT22;7171;50.936;6.764;2023-04-25T09:58:30;9.90;99.90
14182;DHT22;7171;50.936;6.764;2023-04-25T10:01:00;9.90;99.90
14182;DHT22;7171;50.936;6.764;2023-04-25T10:03:27;9.90;99.90
14182;DHT22;7171;50.936;6.764;2023-04-25T10:05:57;9.90;99.90
14182;DHT22;7171;50.936;6.764;2023-04-25T10:08:26;9.90;99.90
14182;DHT22;7171;50.936;6.764;2023-04-25T10:10:56;10.00;99.90
14182;DHT22;7171;50.936;6.764;2023-04-25T10:13:23;9.90;99.90
14182;DHT22;7171;50.936;6.764;2023-04-25T10:15:52;9.80;99.90
14182;DHT22;7171;50.936;6.764;2023-04-25T10:18:19;9.80;99.90
14182;DHT22;7171;50.936;6.764;2023-04-25T10:20:46;9.80;99.90
14182;DHT22;7171;50.936;6.764;2023-04-25T10:23:13;9.80;99.90
14182;DHT22;7171;50.936;6.764;2023-04-25T10:25:42;9.80;99.90
14182;DHT22;7171;50.936;6.764;2023-04-25T10:28:11;9.80;99.90
14182;DHT22;7171;50.936;6.764;2023-04-25T10:30:57;9.80;99.90
14182;DHT22;7171;50.936;6.764;2023-04-25T10:33:31;9.90;99.90
14182;DHT22;7171;50.936;6.764;2023-04-25T10:35:58;9.90;99.90
14182;DHT22;7171;50.936;6.764;2023-04-25T10:38:26;10.00;99.90
14182;DHT22;7171;50.936;6.764;2023-04-25T10:41:03;9.90;99.90
14182;DHT22;7171;50.936;6.764;2023-04-25T10:43:36;10.00;99.90
14182;DHT22;7171;50.936;6.764;2023-04-25T10:46:13;10.10;99.90
14182;DHT22;7171;50.936;6.764;2023-04-25T10:48:45;10.20;99.90
14182;DHT22;7171;50.936;6.764;2023-04-25T10:51:16;10.30;99.90
14182;DHT22;7171;50.936;6.764;2023-04-25T10:53:44;10.30;99.90
14182;DHT22;7171;50.936;6.764;2023-04-25T10:56:11;10.30;99.90
14182;DHT22;7171;50.936;6.764;2023-04-25T10:58:44;10.30;99.90
14182;DHT22;7171;50.936;6.764;2023-04-25T11:01:12;10.30;99.90
14182;DHT22;7171;50.936;6.764;2023-04-25T11:03:40;10.30;99.90
14182;DHT22;7171;50.936;6.764;2023-04-25T11:06:18;10.20;99.90
14182;DHT22;7171;50.936;6.764;2023-04-25T11:08:48;10.00;99.90
14182;DHT22;7171;50.936;6.764;2023-04-25T11:11:16;9.90;99.90
14182;DHT22;7171;50.936;6.764;2023-04-25T11:13:44;10.00;99.90
14182;DHT22;7171;50.936;6.764;2023-04-25T11:16:13;9.90;99.90
14182;DHT22;7171;50.936;6.764;2023-04-25T11:18:41;9.90;99.90
14182;DHT22;7171;50.936;6.764;2023-04-25T11:21:08;9.90;99.90
14182;DHT22;7171;50.936;6.764;2023-04-25T11:23:35;10.00;99.90
14182;DHT22;7171;50.936;6.764;2023-04-25T11:26:02;10.00;99.90
14182;DHT22;7171;50.936;6.764;2023-04-25T11:28:29;10.10;99.90
14182;DHT22;7171;50.936;6.764;2023-04-25T11:30:57;10.20;99.90
14182;DHT22;7171;50.936;6.764;2023-04-25T11:33:25;10.30;99.90
14182;DHT22;7171;50.936;6.764;2023-04-25T11:35:53;10.40;99.90
14182;DHT22;7171;50.936;6.764;2023-04-25T11:38:21;10.50;99.90
14182;DHT22;7171;50.936;6.764;2023-04-25T11:40:50;10.60;99.90
14182;DHT22;7171;50.936;6.764;2023-04-25T11:43:17;10.60;99.90
14182;DHT22;7171;50.936;6.764;2023-04-25T11:45:46;10.70;99.90
14182;DHT22;7171;50.936;6.764;2023-04-25T11:48:15;10.60;99.90
14182;DHT22;7171;50.936;6.764;2023-04-25T11:51:05;10.70;99.90
14182;DHT22;7171;50.936;6.764;2023-04-25T11:53:32;10.80;99.90
14182;DHT22;7171;50.936;6.764;2023-04-25T11:55:59;10.80;99.90
14182;DHT22;7171;50.936;6.764;2023-04-25T11:58:26;10.90;99.90
14182;DHT22;7171;50.936;6.764;2023-04-25T12:00:53;10.90;99.90
14182;DHT22;7171;50.936;6.764;2023-04-25T12:03:25;11.00;99.90
14182;DHT22;7171;50.936;6.764;2023-04-25T12:06:02;11.10;99.90
14182;DHT22;7171;50.936;6.764;2023-04-25T12:08:30;11.10;99.90
14182;DHT22;7171;50.936;6.764;2023-04-25T12:10:57;11.20;99.90
14182;DHT22;7171;50.936;6.764;2023-04-25T12:13:25;11.20;99.90
14182;DHT22;7171;50.936;6.764;2023-04-25T12:15:54;11.30;99.90
14182;DHT22;7171;50.936;6.764;2023-04-25T12:18:24;11.20;99.90
14182;DHT22;7171;50.936;6.764;2023-04-25T12:20:53;11.30;99.90
14182;DHT22;7171;50.936;6.764;2023-04-25T12:23:25;11.40;99.90
14182;DHT22;7171;50.936;6.764;2023-04-25T12:25:52;11.50;99.90
14182;DHT22;7171;50.936;6.764;2023-04-25T12:28:21;11.60;99.90
14182;DHT22;7171;50.936;6.764;2023-04-25T12:30:59;11.80;99.90
14182;DHT22;7171;50.936;6.764;2023-04-25T12:33:28;11.90;99.90
14182;DHT22;7171;50.936;6.764;2023-04-25T12:35:56;11.90;99.90
14182;DHT22;7171;50.936;6.764;2023-04-25T12:38:24;11.80;99.90
14182;DHT22;7171;50.936;6.764;2023-04-25T12:40:51;11.70;99.90
14182;DHT22;7171;50.936;6.764;2023-04-25T12:43:18;11.60;99.90
14182;DHT22;7171;50.936;6.764;2023-04-25T12:45:45;11.50;99.90
14182;DHT22;7171;50.936;6.764;2023-04-25T12:48:13;11.40;99.90
14182;DHT22;7171;50.936;6.764;2023-04-25T12:50:42;11.30;99.90
14182;DHT22;7171;50.936;6.764;2023-04-25T12:53:08;11.10;99.90
14182;DHT22;7171;50.936;6.764;2023-04-25T12:55:35;11.00;99.90
14182;DHT22;7171;50.936;6.764;2023-04-25T12:58:02;10.90;99.90
14182;DHT22;7171;50.936;6.764;2023-04-25T13:00:29;10.80;99.90
14182;DHT22;7171;50.936;6.764;2023-04-25T13:02:57;10.80;99.90
14182;DHT22;7171;50.936;6.764;2023-04-25T13:05:23;10.70;99.90
14182;DHT22;7171;50.936;6.764;2023-04-25T13:07:52;10.70;99.90
14182;DHT22;7171;50.936;6.764;2023-04-25T13:10:18;10.70;99.90
14182;DHT22;7171;50.936;6.764;2023-04-25T13:12:45;10.70;99.90
14182;DHT22;7171;50.936;6.764;2023-04-25T13:15:12;10.70;99.90
14182;DHT22;7171;50.936;6.764;2023-04-25T13:17:41;10.70;99.90
14182;DHT22;7171;50.936;6.764;2023-04-25T13:20:09;10.70;99.90
14182;DHT22;7171;50.936;6.764;2023-04-25T13:22:37;10.70;99.90
14182;DHT22;7171;50.936;6.764;2023-04-25T13:25:07;10.80;99.90
14182;DHT22;7171;50.936;6.764;2023-04-25T13:27:35;10.80;99.90
14182;DHT22;7171;50.936;6.764;2023-04-25T13:30:03;10.90;99.90
14182;DHT22;7171;50.936;6.764;2023-04-25T13:32:32;10.90;99.90
14182;DHT22;7171;50.936;6.764;2023-04-25T13:35:02;11.10;99.90
14182;DHT22;7171;50.936;6.764;2023-04-25T13:37:29;11.20;99.90
14182;DHT22;7171;50.936;6.764;2023-04-25T13:39:58;11.40;99.90
14182;DHT22;7171;50.936;6.764;2023-04-25T13:42:27;11.60;99.90
14182;DHT22;7171;50.936;6.764;2023-04-25T13:44:53;11.80;99.90
14182;DHT22;7171;50.936;6.764;2023-04-25T13:47:20;11.90;99.90
14182;DHT22;7171;50.936;6.764;2023-04-25T13:49:47;12.00;99.90
14182;DHT22;7171;50.936;6.764;2023-04-25T13:52:14;12.10;99.90
14182;DHT22;7171;50.936;6.764;2023-04-25T13:54:40;11.90;99.90
14182;DHT22;7171;50.936;6.764;2023-04-25T13:57:07;11.80;99.90
14182;DHT22;7171;50.936;6.764;2023-04-25T13:59:35;11.80;99.90
14182;DHT22;7171;50.936;6.764;2023-04-25T14:02:02;11.70;99.90
14182;DHT22;7171;50.936;6.764;2023-04-25T14:04:29;11.70;99.90
14182;DHT22;7171;50.936;6.764;2023-04-25T14:06:56;11.70;99.90
14182;DHT22;7171;50.936;6.764;2023-04-25T14:09:23;11.60;99.90
14182;DHT22;7171;50.936;6.764;2023-04-25T14:11:51;11.60;99.90
14182;DHT22;7171;50.936;6.764;2023-04-25T14:14:17;11.50;99.90
14182;DHT22;7171;50.936;6.764;2023-04-25T14:16:46;11.50;99.90
14182;DHT22;7171;50.936;6.764;2023-04-25T14:19:13;11.50;99.90
14182;DHT22;7171;50.936;6.764;2023-04-25T14:21:40;11.40;99.90
14182;DHT22;7171;50.936;6.764;2023-04-25T14:24:07;11.40;99.90
14182;DHT22;7171;50.936;6.764;2023-04-25T14:26:34;11.40;99.90
14182;DHT22;7171;50.936;6.764;2023-04-25T14:29:02;11.40;99.90
14182;DHT22;7171;50.936;6.764;2023-04-25T14:31:29;11.40;99.90
14182;DHT22;7171;50.936;6.764;2023-04-25T14:33:57;11.40;99.90
14182;DHT22;7171;50.936;6.764;2023-04-25T14:36:24;11.40;99.90
14182;DHT22;7171;50.936;6.764;2023-04-25T14:38:51;11.50;99.90
14182;DHT22;7171;50.936;6.764;2023-04-25T14:41:18;11.40;99.90
14182;DHT22;7171;50.936;6.764;2023-04-25T14:43:45;11.50;99.90
14182;DHT22;7171;50.936;6.764;2023-04-25T14:46:12;11.50;99.90
14182;DHT22;7171;50.936;6.764;2023-04-25T14:48:39;11.50;99.90
14182;DHT22;7171;50.936;6.764;2023-04-25T14:51:07;11.60;99.90
14182;DHT22;7171;50.936;6.764;2023-04-25T14:53:34;11.70;99.90
14182;DHT22;7171;50.936;6.764;2023-04-25T14:56:00;11.90;99.90
14182;DHT22;7171;50.936;6.764;2023-04-25T14:58:27;12.00;99.90
14182;DHT22;7171;50.936;6.764;2023-04-25T15:00:54;12.20;99.90
14182;DHT22;7171;50.936;6.764;2023-04-25T15:03:21;12.40;99.90
14182;DHT22;7171;50.936;6.764;2023-04-25T15:05:48;12.60;99.90
14182;DHT22;7171;50.936;6.764;2023-04-25T15:08:16;12.80;99.90
14182;DHT22;7171;50.936;6.764;2023-04-25T15:10:44;12.90;99.90
14182;DHT22;7171;50.936;6.764;2023-04-25T15:13:11;13.00;99.90
14182;DHT22;7171;50.936;6.764;2023-04-25T15:15:38;13.00;99.90
14182;DHT22;7171;50.936;6.764;2023-04-25T15:18:05;13.10;99.90
14182;DHT22;7171;50.936;6.764;2023-04-25T15:20:32;13.20;99.90
14182;DHT22;7171;50.936;6.764;2023-04-25T15:22:59;13.40;99.90
14182;DHT22;7171;50.936;6.764;2023-04-25T15:25:30;13.50;99.90
14182;DHT22;7171;50.936;6.764;2023-04-25T15:27:56;13.70;99.90
14182;DHT22;7171;50.936;6.764;2023-04-25T15:30:23;14.10;99.90
14182;DHT22;7171;50.936;6.764;2023-04-25T15:32:50;13.90;99.90
14182;DHT22;7171;50.936;6.764;2023-04-25T15:35:17;14.10;99.90
14182;DHT22;7171;50.936;6.764;2023-04-25T15:37:43;14.10;99.90
14182;DHT22;7171;50.936;6.764;2023-04-25T15:40:12;14.20;99.90
14182;DHT22;7171;50.936;6.764;2023-04-25T15:42:41;14.40;99.90
14182;DHT22;7171;50.936;6.764;2023-04-25T15:45:10;14.50;99.90
14182;DHT22;7171;50.936;6.764;2023-04-25T15:47:37;14.50;99.90
14182;DHT22;7171;50.936;6.764;2023-04-25T15:50:06;14.50;99.90
14182;DHT22;7171;50.936;6.764;2023-04-25T15:52:34;14.40;99.90
14182;DHT22;7171;50.936;6.764;2023-04-25T15:55:01;14.10;99.90
14182;DHT22;7171;50.936;6.764;2023-04-25T15:57:29;13.80;99.90
14182;DHT22;7171;50.936;6.764;2023-04-25T15:59:57;13.50;99.90